Time;durP1;ratioP1;P1;durP2;ratioP2;P2;SDS_P1;SDS_P2;PMS_P1;PMS_P2;Temp;Humidity;BMP_temperature;BMP_pressure;BME280_temperature;BME280_humidity;BME280_pressure;Samples;Min_cycle;Max_cycle;Signal;HPM_P1;HPM_P2
2022/11/06 00:02:25;;;;;;;7.95;1.42;;;;;;;12.15;73.13;100763.63;5031076;28;20041;-60
2022/11/06 00:04:51;;;;;;;6.55;1.42;;;;;;;11.97;73.95;100766.06;5032490;28;20041;-61
2022/11/06 00:07:16;;;;;;;5.45;1.15;;;;;;;12.23;72.45;100753.88;5031195;28;20052;-61
2022/11/06 00:09:42;;;;;;;6.50;1.95;;;;;;;12.34;72.25;100764.59;5032460;28;20025;-61
2022/11/06 00:12:08;;;;;;;7.80;1.35;;;;;;;11.83;73.69;100782.56;5032258;28;20114;-62
2022/11/06 00:14:34;;;;;;;9.00;1.38;;;;;;;12.02;73.12;100780.00;5032569;28;20389;-64
2022/11/06 00:16:59;;;;;;;6.68;1.52;;;;;;;12.41;72.36;100762.19;5032370;28;20509;-62
2022/11/06 00:19:25;;;;;;;7.80;1.30;;;;;;;11.95;73.27;100776.13;5030740;28;20057;-61
2022/11/06 00:21:51;;;;;;;7.68;1.40;;;;;;;11.94;73.65;100758.25;5030929;28;20076;-61
2022/11/06 00:24:16;;;;;;;8.07;1.52;;;;;;;11.91;73.41;100767.44;5031893;28;20029;-60
2022/11/06 00:26:42;;;;;;;7.20;1.27;;;;;;;12.01;73.80;100764.81;5031579;28;20112;-61
2022/11/06 00:29:12;;;;;;;5.70;1.08;;;;;;;11.82;73.93;100764.69;5031883;28;20040;-61
2022/11/06 00:31:38;;;;;;;6.47;1.20;;;;;;;11.81;73.65;100771.06;5032615;28;20374;-61
2022/11/06 00:34:06;;;;;;;6.72;1.15;;;;;;;12.43;72.71;100767.44;5032235;28;20025;-61
2022/11/06 00:36:32;;;;;;;9.45;1.88;;;;;;;11.89;73.23;100763.16;5031234;28;20033;-62
2022/11/06 00:38:58;;;;;;;9.32;1.65;;;;;;;12.11;73.14;100752.28;5030631;28;20500;-63
2022/11/06 00:41:25;;;;;;;8.45;1.20;;;;;;;11.86;73.72;100763.44;5031010;28;20063;-61
2022/11/06 00:43:53;;;;;;;7.15;1.60;;;;;;;12.24;72.69;100763.66;5030576;28;20056;-62
2022/11/06 00:46:20;;;;;;;8.73;1.30;;;;;;;12.12;72.67;100761.22;5031603;28;20072;-61
2022/11/06 00:48:45;;;;;;;9.25;1.45;;;;;;;11.58;74.31;100776.50;5032015;28;20033;-62
2022/11/06 00:51:18;;;;;;;7.38;1.13;;;;;;;11.97;73.61;100766.06;5063636;28;20413;-63
2022/11/06 00:53:44;;;;;;;4.55;0.90;;;;;;;11.85;73.67;100762.59;5030676;28;20026;-61
2022/11/06 00:56:15;;;;;;;4.32;1.27;;;;;;;12.07;72.78;100766.97;5031983;28;20497;-61
2022/11/06 00:58:41;;;;;;;7.97;1.38;;;;;;;11.75;73.38;100767.84;5030565;28;20033;-63
2022/11/06 01:01:14;;;;;;;7.70;1.42;;;;;;;11.85;73.49;100767.13;5030239;28;20021;-62
2022/11/06 01:03:42;;;;;;;8.15;2.40;;;;;;;11.96;73.13;100765.22;5031917;28;20033;-61
2022/11/06 01:06:10;;;;;;;7.82;1.20;;;;;;;11.81;73.55;100766.53;5031866;28;20399;-63
2022/11/06 01:08:36;;;;;;;7.03;1.65;;;;;;;11.88;72.85;100772.25;5031774;28;20091;-63
2022/11/06 01:11:13;;;;;;;7.40;1.15;;;;;;;11.39;74.37;100770.94;5031562;28;20037;-63
2022/11/06 01:13:39;;;;;;;13.13;1.80;;;;;;;11.37;74.38;100771.09;5031602;28;20052;-63
2022/11/06 01:16:08;;;;;;;5.35;1.23;;;;;;;11.36;74.78;100776.59;5031834;28;20137;-64
2022/11/06 01:18:34;;;;;;;8.27;1.30;;;;;;;11.57;73.99;100768.56;5030440;28;20022;-62
2022/11/06 01:21:06;;;;;;;6.97;1.10;;;;;;;11.35;73.68;100772.19;5030036;28;20036;-64
2022/11/06 01:23:32;;;;;;;5.82;1.65;;;;;;;11.20;74.94;100770.78;5030241;28;20057;-64
2022/11/06 01:26:00;;;;;;;5.53;0.80;;;;;;;11.38;73.98;100766.56;5031525;28;20030;-65
2022/11/06 01:28:26;;;;;;;4.10;1.00;;;;;;;11.03;74.60;100762.25;5030569;28;20041;-64
2022/11/06 01:30:52;;;;;;;5.63;1.27;;;;;;;11.01;74.42;100766.91;5031953;28;20053;-65
2022/11/06 01:33:18;;;;;;;6.35;1.10;;;;;;;10.88;75.22;100771.56;5030212;28;20029;-64
2022/11/06 01:35:45;;;;;;;7.65;1.05;;;;;;;10.77;75.40;100763.53;5031805;28;20481;-66
2022/11/06 01:38:10;;;;;;;10.77;1.20;;;;;;;10.96;75.15;100763.75;5031530;28;20021;-65
2022/11/06 01:40:45;;;;;;;9.48;2.38;;;;;;;10.87;74.70;100759.09;5031534;28;20371;-66
2022/11/06 01:43:34;;;;;;;4.63;1.05;;;;;;;11.50;73.37;100756.59;5030313;28;20049;-64
2022/11/06 01:45:59;;;;;;;10.13;1.23;;;;;;;11.45;73.14;100765.06;5031599;28;20555;-66
2022/11/06 01:48:26;;;;;;;6.03;1.48;;;;;;;11.39;73.71;100754.81;5031351;28;20117;-65
2022/11/06 01:50:56;;;;;;;3.22;0.88;;;;;;;11.31;73.80;100762.69;5031396;28;20073;-67
2022/11/06 01:53:24;;;;;;;6.00;0.98;;;;;;;11.37;74.27;100756.78;5063603;28;20075;-66
2022/11/06 01:55:53;;;;;;;6.03;1.05;;;;;;;11.21;74.12;100756.34;5031661;28;20470;-67
2022/11/06 01:58:21;;;;;;;5.35;1.02;;;;;;;11.13;74.64;100759.66;5032340;28;20036;-65
2022/11/06 02:00:48;;;;;;;6.35;1.30;;;;;;;11.40;74.09;100767.28;5034979;28;20037;-67
2022/11/06 02:03:14;;;;;;;5.45;0.90;;;;;;;11.32;73.78;100767.06;5034854;28;20075;-67
2022/11/06 02:05:41;;;;;;;6.45;1.15;;;;;;;11.28;73.79;100763.78;5034756;28;20026;-68
2022/11/06 02:08:10;;;;;;;6.20;1.10;;;;;;;11.33;74.44;100771.47;5035017;28;20026;-67
2022/11/06 02:10:37;;;;;;;5.88;1.15;;;;;;;11.31;74.12;100762.69;5033718;28;20029;-67
2022/11/06 02:13:17;;;;;;;8.85;1.20;;;;;;;11.35;74.21;100761.44;5035025;28;20481;-66
2022/11/06 02:15:54;;;;;;;9.93;1.73;;;;;;;11.46;73.40;100764.09;5033323;28;20033;-67
2022/11/06 02:18:38;;;;;;;5.22;0.90;;;;;;;11.59;73.35;100745.03;5032801;28;20425;-67
2022/11/06 02:21:40;;;;;;;6.43;0.98;;;;;;;11.52;73.37;100752.78;5034387;28;20033;-68
2022/11/06 02:24:54;;;;;;;8.57;1.13;;;;;;;11.47;74.02;100751.47;4993664;28;20053;-66
2022/11/06 02:27:23;;;;;;;7.60;1.52;;;;;;;11.40;73.84;100743.03;4993752;28;20034;-67
2022/11/06 02:29:57;;;;;;;8.20;1.00;;;;;;;11.60;73.10;100750.31;4995049;28;20038;-67
2022/11/06 02:32:35;;;;;;;6.60;1.20;;;;;;;11.59;73.46;100743.25;4995225;28;20042;-68
2022/11/06 02:35:10;;;;;;;6.65;1.42;;;;;;;11.45;73.82;100744.41;4993451;28;20039;-69
2022/11/06 02:37:37;;;;;;;6.53;0.90;;;;;;;11.49;74.17;100744.97;4994926;28;20510;-68
2022/11/06 02:40:07;;;;;;;3.38;1.48;;;;;;;11.30;73.96;100736.75;4994849;28;20066;-68
2022/11/06 02:42:39;;;;;;;8.48;1.92;;;;;;;11.34;73.31;100740.88;4994794;28;20125;-68
2022/11/06 02:45:09;;;;;;;3.90;1.08;;;;;;;11.29;73.74;100741.28;4994552;28;20356;-66
2022/11/06 02:47:38;;;;;;;10.65;1.35;;;;;;;11.34;73.88;100735.50;4994711;28;20034;-69
2022/11/06 02:50:09;;;;;;;4.95;1.20;;;;;;;11.39;74.16;100731.44;4995148;28;20498;-69
2022/11/06 02:52:48;;;;;;;6.82;1.00;;;;;;;11.30;73.50;100740.28;4994493;28;20494;-67
2022/11/06 02:55:19;;;;;;;4.38;0.63;;;;;;;11.24;74.22;100746.16;4994779;28;20106;-69
2022/11/06 02:57:53;;;;;;;8.20;2.22;;;;;;;11.26;73.78;100732.59;4994431;28;20038;-69
2022/11/06 03:00:20;;;;;;;5.15;1.30;;;;;;;11.12;73.57;100739.13;4994815;28;20027;-71
2022/11/06 03:02:56;;;;;;;7.60;1.10;;;;;;;11.13;73.77;100739.00;4994716;28;20030;-69
2022/11/06 03:05:55;;;;;;;5.45;1.10;;;;;;;11.22;74.50;100733.81;4994539;28;20030;-69
2022/11/06 03:08:25;;;;;;;7.68;0.90;;;;;;;11.37;73.26;100724.47;4994426;28;20117;-71
2022/11/06 03:11:17;;;;;;;4.93;1.60;;;;;;;11.27;73.25;100727.09;4992218;28;20061;-69
2022/11/06 03:13:57;;;;;;;5.22;1.10;;;;;;;11.30;74.14;100728.66;4993027;28;20076;-71
2022/11/06 03:16:26;;;;;;;11.30;1.10;;;;;;;10.92;73.79;100735.41;4994217;28;20042;-71
2022/11/06 03:19:06;;;;;;;6.75;1.48;;;;;;;11.23;74.02;100730.16;4994601;28;20026;-71
2022/11/06 03:21:40;;;;;;;6.93;1.20;;;;;;;11.12;74.15;100731.91;4994938;28;20183;-72
2022/11/06 03:24:16;;;;;;;7.73;1.10;;;;;;;10.97;74.60;100735.00;5033425;28;20347;-72
2022/11/06 03:26:47;;;;;;;5.93;1.00;;;;;;;11.06;74.21;100720.78;5033216;28;20324;-72
2022/11/06 03:29:22;;;;;;;4.18;1.25;;;;;;;10.97;74.69;100719.72;5031762;28;20025;-73
2022/11/06 03:31:57;;;;;;;;;;;;;;;10.52;75.60;100733.22;5032534;28;20032;-74
2022/11/06 03:34:29;;;;;;;5.53;1.00;;;;;;;10.96;75.31;100727.91;5033132;28;20015;-72
2022/11/06 03:37:02;;;;;;;8.10;1.30;;;;;;;11.09;74.15;100734.84;5033566;28;20084;-69
2022/11/06 03:39:38;;;;;;;2.13;0.90;;;;;;;10.93;74.59;100736.25;5031766;28;20040;-71
2022/11/06 03:42:11;;;;;;;7.60;1.75;;;;;;;11.11;74.12;100732.91;5033331;28;20025;-73
2022/11/06 03:44:42;;;;;;;4.05;1.10;;;;;;;11.12;74.75;100737.28;5033190;28;20030;-72
2022/11/06 03:47:19;;;;;;;8.45;1.63;;;;;;;11.12;74.09;100731.91;5032925;28;20072;-74
2022/11/06 03:49:50;;;;;;;8.73;1.30;;;;;;;11.06;74.63;100743.16;5032682;28;20025;-74
2022/11/06 03:52:23;;;;;;;5.95;1.30;;;;;;;10.93;75.10;100731.72;5031796;28;20079;-74
2022/11/06 03:55:00;;;;;;;5.28;1.48;;;;;;;11.14;74.14;100735.31;5031823;28;20033;-74
2022/11/06 03:57:35;;;;;;;7.25;1.70;;;;;;;11.17;74.36;100731.53;5033007;28;20437;-75
2022/11/06 04:00:06;;;;;;;5.38;1.92;;;;;;;11.11;75.04;100735.59;5032784;28;20390;-76
2022/11/06 04:02:37;;;;;;;11.63;1.45;;;;;;;11.19;74.30;100729.56;5031382;28;20103;-76
2022/11/06 04:05:08;;;;;;;6.47;1.40;;;;;;;11.29;73.74;100726.97;5032687;28;20458;-75
2022/11/06 04:13:56;;;;;;;9.30;1.38;;;;;;;11.10;74.42;100723.13;5031611;28;20040;-76
2022/11/06 04:16:10;;;;;;;7.10;1.48;;;;;;;10.90;74.88;100726.56;5032636;28;20414;-75
2022/11/06 04:18:35;;;;;;;4.82;1.10;;;;;;;11.11;74.78;100740.13;5031078;28;20116;-74
2022/11/06 04:21:23;;;;;;;5.00;1.00;;;;;;;11.28;74.44;100733.34;5032112;28;20464;-75
2022/11/06 04:27:02;;;;;;;9.10;1.85;;;;;;;11.40;73.75;100718.81;5032211;28;20043;-75
2022/11/06 04:29:46;;;;;;;6.72;1.42;;;;;;;11.71;72.82;100727.84;5032185;28;20042;-75
2022/11/06 04:32:34;;;;;;;8.90;1.70;;;;;;;11.48;73.31;100740.59;5030977;28;20195;-74
2022/11/06 04:35:14;;;;;;;6.90;1.10;;;;;;;11.33;73.94;100739.19;5032033;28;20052;-74
2022/11/06 04:38:01;;;;;;;5.22;0.95;;;;;;;11.82;72.28;100729.66;5031978;28;20022;-71
2022/11/06 04:40:50;;;;;;;7.07;1.55;;;;;;;11.61;73.53;100733.19;5032352;28;20033;-72
2022/11/06 04:43:25;;;;;;;8.50;1.52;;;;;;;11.56;73.10;100730.00;5030169;28;20053;-73
2022/11/06 04:45:54;;;;;;;6.85;1.20;;;;;;;11.88;72.25;100723.75;5032195;28;20033;-74
2022/11/06 04:48:21;;;;;;;7.00;1.80;;;;;;;11.64;72.32;100719.47;5032215;28;20047;-75
2022/11/06 04:50:51;;;;;;;7.30;1.17;;;;;;;11.50;73.27;100719.75;5032092;28;20029;-76
2022/11/06 04:53:19;;;;;;;5.93;1.67;;;;;;;11.63;73.08;100714.19;5032120;28;20044;-77
2022/11/06 04:55:51;;;;;;;5.13;1.30;;;;;;;11.51;72.94;100724.16;5032675;28;20087;-76
2022/11/06 04:58:17;;;;;;;9.73;1.70;;;;;;;11.68;72.45;100728.97;5032264;28;20028;-71
2022/11/06 05:00:49;;;;;;;9.27;1.73;;;;;;;11.43;73.76;100729.34;5030438;28;20026;-75
2022/11/06 05:03:15;;;;;;;7.10;2.28;;;;;;;10.80;74.95;100725.63;5031894;28;20042;-73
2022/11/06 05:05:42;;;;;;;8.90;1.52;;;;;;;11.45;73.45;100730.94;5031934;28;20033;-71
2022/11/06 05:08:18;;;;;;;8.88;2.45;;;;;;;11.52;72.95;100730.41;5031881;28;20068;-69
2022/11/06 05:10:44;;;;;;;5.70;1.42;;;;;;;11.34;73.70;100727.41;5031854;28;20021;-70
2022/11/06 05:13:10;;;;;;;8.27;1.83;;;;;;;11.40;73.54;100729.59;5032106;28;20030;-70
2022/11/06 05:15:36;;;;;;;8.63;1.70;;;;;;;11.17;73.93;100738.75;5031886;28;20041;-69
2022/11/06 05:18:02;;;;;;;9.25;1.45;;;;;;;11.53;72.99;100729.41;5030526;28;20040;-70
2022/11/06 05:20:27;;;;;;;7.13;1.92;;;;;;;11.50;73.22;100725.16;5032004;28;20036;-70
2022/11/06 05:22:59;;;;;;;6.35;1.35;;;;;;;11.32;73.78;100738.31;5031626;28;20402;-69
2022/11/06 05:25:36;;;;;;;5.38;1.20;;;;;;;11.43;73.55;100735.59;5031651;28;20057;-68
2022/11/06 05:28:05;;;;;;;7.05;1.65;;;;;;;11.34;73.48;100743.56;5031788;28;20033;-70
2022/11/06 05:30:31;;;;;;;11.15;1.83;;;;;;;11.13;74.16;100740.84;5031778;28;20094;-70
2022/11/06 05:32:56;;;;;;;9.48;1.40;;;;;;;11.08;74.85;100735.81;5064121;28;20515;-69
2022/11/06 05:35:22;;;;;;;6.50;1.30;;;;;;;11.30;73.89;100739.44;5034182;28;20029;-69
2022/11/06 05:37:47;;;;;;;4.43;1.05;;;;;;;11.39;73.41;100739.50;5035309;28;20030;-68
2022/11/06 05:40:13;;;;;;;5.82;1.08;;;;;;;11.44;73.79;100748.06;5035162;28;20037;-69
2022/11/06 05:42:40;;;;;;;7.85;1.20;;;;;;;11.25;73.80;100738.94;5035377;28;20065;-69
2022/11/06 05:45:07;;;;;;;6.45;1.50;;;;;;;11.61;72.98;100733.19;5035294;28;20033;-70
2022/11/06 05:47:33;;;;;;;6.70;1.45;;;;;;;11.51;73.12;100732.25;5033864;28;20142;-70
2022/11/06 05:49:59;;;;;;;4.82;1.38;;;;;;;11.34;72.96;100736.34;5035071;28;20120;-69
2022/11/06 05:52:25;;;;;;;4.68;1.50;;;;;;;11.47;72.98;100720.03;5035028;28;20025;-68
2022/11/06 05:54:50;;;;;;;3.70;1.05;;;;;;;11.61;72.94;100725.09;5035258;28;20425;-70
2022/11/06 05:57:16;;;;;;;6.28;1.27;;;;;;;11.72;72.76;100730.41;5035080;28;20437;-72
2022/11/06 05:59:42;;;;;;;7.18;1.00;;;;;;;11.75;72.18;100726.59;5035306;28;20067;-70
2022/11/06 06:02:09;;;;;;;8.90;1.77;;;;;;;11.68;72.48;100723.59;5033950;28;20127;-68
2022/11/06 06:04:35;;;;;;;8.32;1.20;;;;;;;11.69;72.55;100729.81;5034710;28;20053;-70
2022/11/06 06:07:01;;;;;;;11.27;1.40;;;;;;;11.58;72.95;100728.03;5034552;28;20072;-68
2022/11/06 06:09:26;;;;;;;8.55;1.60;;;;;;;11.60;72.61;100731.47;5034632;28;20112;-67
2022/11/06 06:11:53;;;;;;;9.07;1.48;;;;;;;11.24;73.86;100745.31;5035266;28;20045;-69
2022/11/06 06:14:21;;;;;;;8.52;1.50;;;;;;;11.32;73.75;100742.84;5033574;28;20034;-69
2022/11/06 06:16:47;;;;;;;8.77;1.23;;;;;;;11.28;73.56;100739.56;5034664;28;20037;-69
2022/11/06 06:19:13;;;;;;;9.60;1.50;;;;;;;11.35;73.73;100743.44;5034373;28;20109;-69
2022/11/06 06:21:39;;;;;;;3.70;1.33;;;;;;;11.42;72.93;100746.47;5034223;28;20029;-69
2022/11/06 06:24:05;;;;;;;4.65;1.15;;;;;;;11.44;72.86;100747.22;5034180;28;20104;-69
2022/11/06 06:26:31;;;;;;;6.75;1.60;;;;;;;11.44;72.62;100741.84;5034671;28;20453;-69
2022/11/06 06:28:56;;;;;;;6.13;1.55;;;;;;;11.51;72.58;100736.78;5032899;28;20124;-69
2022/11/06 06:31:22;;;;;;;5.18;1.63;;;;;;;11.60;72.50;100746.78;5033299;28;20027;-69
2022/11/06 06:33:48;;;;;;;8.50;2.42;;;;;;;11.68;72.82;100747.81;5034401;28;20615;-69
2022/11/06 06:36:14;;;;;;;8.77;1.38;;;;;;;11.51;72.94;100748.41;5034178;28;20028;-70
2022/11/06 06:38:40;;;;;;;7.70;1.65;;;;;;;11.52;72.26;100755.50;5032749;28;20025;-69
2022/11/06 06:41:07;;;;;;;8.10;2.83;;;;;;;11.64;73.14;100749.06;5033939;28;20545;-69
2022/11/06 06:43:34;;;;;;;10.35;2.53;;;;;;;11.63;72.99;100746.53;5034146;28;20034;-69
2022/11/06 06:46:00;;;;;;;6.53;1.35;;;;;;;11.75;72.70;100746.31;5034229;28;20103;-68
2022/11/06 06:48:26;;;;;;;8.32;2.13;;;;;;;11.86;71.61;100736.50;5032816;28;20075;-68
2022/11/06 06:50:55;;;;;;;4.50;1.70;;;;;;;11.79;72.04;100752.34;5034320;28;20340;-67
2022/11/06 06:53:20;;;;;;;7.88;2.08;;;;;;;11.85;72.24;100753.66;5033720;28;20060;-68
2022/11/06 06:55:46;;;;;;;4.93;1.50;;;;;;;11.82;72.52;100759.31;5033931;28;20064;-68
2022/11/06 06:58:12;;;;;;;8.77;3.25;;;;;;;11.65;72.03;100758.88;5032524;28;20033;-69
2022/11/06 07:00:38;;;;;;;6.20;1.60;;;;;;;11.53;72.34;100762.59;5033684;28;20462;-70
2022/11/06 07:03:03;;;;;;;6.45;1.40;;;;;;;11.45;72.59;100771.31;5033300;28;20068;-68
2022/11/06 07:05:30;;;;;;;8.23;1.55;;;;;;;11.20;73.34;100760.00;5033803;28;20029;-66
2022/11/06 07:07:56;;;;;;;9.48;1.95;;;;;;;11.29;73.74;100759.25;5033172;28;20162;-70
2022/11/06 07:10:22;;;;;;;6.47;1.60;;;;;;;11.35;73.32;100759.59;5032176;28;20577;-69
2022/11/06 07:12:47;;;;;;;10.73;2.53;;;;;;;11.34;72.91;100751.66;5033387;28;20164;-69
2022/11/06 07:15:13;;;;;;;6.88;2.17;;;;;;;11.64;72.62;100742.84;5032846;28;20035;-68
2022/11/06 07:17:39;;;;;;;5.38;1.67;;;;;;;11.65;72.52;100753.47;5032503;28;20060;-68
2022/11/06 07:20:05;;;;;;;6.88;1.77;;;;;;;11.51;72.85;100753.78;5032610;28;20025;-68
2022/11/06 07:22:31;;;;;;;7.10;2.35;;;;;;;11.28;73.05;100755.72;5031904;28;20045;-69
2022/11/06 07:24:57;;;;;;;7.50;1.95;;;;;;;11.55;73.17;100749.00;5033106;28;20037;-67
2022/11/06 07:27:22;;;;;;;10.05;2.15;;;;;;;11.45;73.28;100757.00;5033229;28;20030;-68
2022/11/06 07:29:48;;;;;;;7.30;2.38;;;;;;;11.30;73.46;100756.44;5031873;28;20108;-69
2022/11/06 07:32:13;;;;;;;9.05;2.13;;;;;;;11.27;73.35;100754.00;5033179;28;20168;-69
2022/11/06 07:34:39;;;;;;;7.25;2.08;;;;;;;11.38;73.79;100747.72;5033166;28;20135;-68
2022/11/06 07:37:05;;;;;;;6.20;2.30;;;;;;;11.19;74.37;100752.91;5033030;28;20030;-69
2022/11/06 07:39:31;;;;;;;5.78;1.95;;;;;;;11.61;73.16;100754.72;5031897;28;20026;-69
2022/11/06 07:41:56;;;;;;;6.75;2.25;;;;;;;11.81;72.35;100749.50;5033379;28;20095;-68
2022/11/06 07:44:22;;;;;;;7.45;2.53;;;;;;;11.71;72.14;100750.25;5033329;28;20069;-69
2022/11/06 07:46:48;;;;;;;4.43;1.90;;;;;;;11.98;72.09;100751.63;5032596;28;20068;-68
2022/11/06 07:49:14;;;;;;;6.57;1.95;;;;;;;12.01;72.04;100748.66;5032575;28;20087;-68
2022/11/06 07:51:43;;;;;;;7.38;2.00;;;;;;;12.05;71.82;100747.41;5031568;28;20099;-68
2022/11/06 07:54:10;;;;;;;6.85;1.90;;;;;;;11.77;72.65;100748.91;5033198;28;20029;-69
2022/11/06 07:56:36;;;;;;;9.18;2.05;;;;;;;12.01;72.26;100752.19;5032299;28;20083;-68
2022/11/06 07:59:02;;;;;;;10.30;2.05;;;;;;;12.18;71.30;100753.44;5032608;28;20038;-67
2022/11/06 08:01:28;;;;;;;5.65;1.88;;;;;;;12.16;71.92;100754.56;5032898;28;20060;-68
2022/11/06 08:03:54;;;;;;;7.00;1.80;;;;;;;12.09;72.18;100759.59;5032514;28;20056;-68
2022/11/06 08:06:19;;;;;;;4.88;1.92;;;;;;;12.31;71.56;100753.22;5032768;28;20037;-69
2022/11/06 08:08:45;;;;;;;8.75;1.85;;;;;;;12.11;71.95;100760.34;5031354;28;20075;-68
2022/11/06 08:11:11;;;;;;;10.93;2.05;;;;;;;12.33;71.33;100746.72;5031246;28;20021;-67
2022/11/06 08:13:37;;;;;;;6.50;2.00;;;;;;;12.29;71.38;100745.28;5032359;28;20048;-68
2022/11/06 08:16:04;;;;;;;12.10;2.75;;;;;;;12.29;71.23;100734.50;5031179;28;20120;-69
2022/11/06 08:18:29;;;;;;;6.00;2.00;;;;;;;12.30;71.31;100744.28;5032255;28;20126;-68
2022/11/06 08:20:56;;;;;;;7.13;2.10;;;;;;;12.44;71.66;100747.63;5032438;28;20458;-68
2022/11/06 08:23:21;;;;;;;12.23;2.20;;;;;;;12.36;71.76;100745.59;5031949;28;20057;-68
2022/11/06 08:25:47;;;;;;;6.93;1.95;;;;;;;12.59;71.32;100746.25;5032288;28;20119;-68
2022/11/06 08:28:12;;;;;;;6.13;2.08;;;;;;;12.26;71.38;100742.84;5031985;28;20037;-69
2022/11/06 08:30:38;;;;;;;5.38;1.85;;;;;;;12.33;71.15;100740.47;5032031;28;20097;-68
2022/11/06 08:33:07;;;;;;;5.65;2.05;;;;;;;12.32;71.31;100738.75;5031617;28;20049;-68
2022/11/06 08:35:34;;;;;;;9.27;2.40;;;;;;;12.33;71.69;100735.94;5032042;28;20094;-68
2022/11/06 08:37:59;;;;;;;4.90;1.98;;;;;;;12.28;71.89;100730.09;5031765;28;20060;-68
2022/11/06 08:40:25;;;;;;;6.65;2.08;;;;;;;12.42;71.51;100736.09;5031459;28;20116;-66
2022/11/06 08:42:50;;;;;;;5.70;2.38;;;;;;;12.57;70.95;100732.91;5031673;28;20063;-66
2022/11/06 08:45:16;;;;;;;7.32;3.03;;;;;;;12.61;70.98;100733.50;5030222;28;20029;-68
2022/11/06 08:47:43;;;;;;;10.70;1.73;;;;;;;12.82;69.97;100723.47;5031638;28;20393;-67
2022/11/06 08:50:08;;;;;;;7.10;2.13;;;;;;;12.62;70.78;100719.03;5030530;28;20029;-68
2022/11/06 08:52:34;;;;;;;6.78;1.95;;;;;;;12.59;70.61;100730.91;5031793;28;20029;-67
2022/11/06 08:54:59;;;;;;;7.07;2.30;;;;;;;12.78;70.61;100723.91;5031187;28;20071;-64
2022/11/06 08:57:25;;;;;;;5.60;1.77;;;;;;;12.84;70.13;100718.78;5030248;28;20060;-66
2022/11/06 08:59:51;;;;;;;4.00;1.88;;;;;;;12.62;70.86;100719.88;5031910;28;20481;-65
2022/11/06 09:02:16;;;;;;;6.45;1.75;;;;;;;12.78;70.79;100724.75;5031313;28;20117;-67
2022/11/06 09:04:42;;;;;;;7.05;2.20;;;;;;;12.70;70.63;100727.25;5063836;28;20124;-66
2022/11/06 09:07:08;;;;;;;8.70;1.98;;;;;;;12.29;72.13;100722.84;5030803;28;20057;-66
2022/11/06 09:09:34;;;;;;;6.88;1.88;;;;;;;12.71;71.39;100722.72;5035619;28;20037;-65
2022/11/06 09:12:00;;;;;;;4.65;1.90;;;;;;;12.70;71.05;100721.88;5035489;28;20441;-66
2022/11/06 09:14:26;;;;;;;8.18;2.75;;;;;;;12.91;70.74;100728.03;5034063;28;20025;-66
2022/11/06 09:16:52;;;;;;;9.45;2.03;;;;;;;13.07;69.82;100719.38;5035248;28;20029;-65
2022/11/06 09:19:19;;;;;;;6.72;2.08;;;;;;;12.87;70.88;100721.22;5035452;28;20040;-66
2022/11/06 09:21:44;;;;;;;7.63;2.42;;;;;;;13.44;69.62;100714.22;5034944;28;20064;-64
2022/11/06 09:24:10;;;;;;;4.03;1.48;;;;;;;14.25;67.73;100714.63;5035278;28;20501;-67
2022/11/06 09:26:36;;;;;;;5.78;1.50;;;;;;;14.00;67.61;100705.31;5035324;28;20033;-67
2022/11/06 09:29:02;;;;;;;3.03;1.48;;;;;;;13.78;68.31;100708.38;5033597;28;20069;-65
2022/11/06 09:31:27;;;;;;;6.32;1.50;;;;;;;13.68;68.39;100710.22;5034921;28;20089;-66
2022/11/06 09:33:54;;;;;;;5.28;1.60;;;;;;;13.82;68.16;100707.91;5033942;28;20478;-67
2022/11/06 09:36:20;;;;;;;6.07;1.40;;;;;;;14.08;67.17;100694.59;5034935;28;20469;-65
2022/11/06 09:38:45;;;;;;;4.15;1.77;;;;;;;13.90;68.06;100687.41;5034829;28;20029;-66
2022/11/06 09:41:21;;;;;;;5.45;1.48;;;;;;;13.71;68.29;100701.81;5034495;28;20089;-65
2022/11/06 09:44:29;;;;;;;6.45;2.30;;;;;;;14.60;66.54;100695.00;5034277;28;20460;-67
2022/11/06 09:46:57;;;;;;;4.00;1.25;;;;;;;14.67;65.72;100695.25;5035378;28;20056;-68
2022/11/06 09:49:46;;;;;;;4.22;1.35;;;;;;;15.07;64.16;100689.44;5033305;28;20041;-68
2022/11/06 09:52:23;;;;;;;4.70;1.85;;;;;;;15.07;64.62;100697.56;5034559;28;20109;-68
2022/11/06 09:54:56;;;;;;;4.00;1.20;;;;;;;15.23;64.07;100692.31;5034775;28;20124;-66
2022/11/06 09:57:32;;;;;;;8.75;2.55;;;;;;;15.25;63.39;100694.88;5034544;28;20121;-64
2022/11/06 10:00:00;;;;;;;7.40;1.88;;;;;;;15.54;63.60;100689.22;5034006;28;20324;-66
2022/11/06 10:02:36;;;;;;;5.07;1.67;;;;;;;15.51;62.98;100682.25;5035590;28;20033;-68
2022/11/06 10:05:32;;;;;;;4.88;1.95;;;;;;;15.25;62.85;100668.63;5034707;28;20026;-66
2022/11/06 10:08:01;;;;;;;4.40;1.17;;;;;;;15.33;63.13;100673.28;5034932;28;20029;-66
2022/11/06 10:10:44;;;;;;;4.45;1.65;;;;;;;15.52;62.54;100669.56;5035096;28;20049;-66
2022/11/06 10:13:27;;;;;;;6.80;1.25;;;;;;;14.87;64.02;100663.50;5034349;28;20115;-66
2022/11/06 10:16:12;;;;;;;8.00;2.47;;;;;;;14.79;64.42;100679.69;5033043;28;20029;-65
2022/11/06 10:19:00;;;;;;;3.67;1.20;;;;;;;14.98;64.30;100672.28;5065906;28;20036;-64
2022/11/06 10:21:47;;;;;;;5.80;1.52;;;;;;;14.26;66.23;100674.91;5034065;28;20025;-66
2022/11/06 10:24:32;;;;;;;6.25;1.73;;;;;;;14.14;66.78;100675.13;5033741;28;20064;-66
2022/11/06 10:26:57;;;;;;;;;;;;;;;14.06;66.58;100669.56;5032724;28;20029;-66
2022/11/06 10:29:38;;;;;;;4.13;1.42;;;;;;;14.06;67.11;100669.56;5032517;28;19913;-64
2022/11/06 10:32:22;;;;;;;6.10;1.90;;;;;;;13.98;66.69;100666.78;5034360;28;20446;-66
2022/11/06 10:35:02;;;;;;;4.82;1.58;;;;;;;14.06;66.27;100664.16;5032243;28;20120;-65
2022/11/06 10:37:49;;;;;;;5.55;2.03;;;;;;;13.63;67.17;100644.97;5032581;28;20069;-66
2022/11/06 10:40:23;;;;;;;7.57;3.00;;;;;;;13.81;66.48;100643.22;5033869;28;20080;-67
2022/11/06 10:43:02;;;;;;;5.65;2.15;;;;;;;13.84;67.10;100645.63;5033973;28;20068;-65
2022/11/06 10:45:29;;;;;;;6.60;2.67;;;;;;;13.68;67.37;100642.66;5033782;28;20034;-66
2022/11/06 10:48:02;;;;;;;4.28;1.75;;;;;;;13.90;66.65;100646.88;5033750;28;20120;-65
2022/11/06 10:50:41;;;;;;;6.82;1.95;;;;;;;14.33;66.10;100632.75;5032253;28;20454;-66
2022/11/06 10:53:19;;;;;;;11.75;1.98;;;;;;;14.22;66.34;100630.25;5032182;28;20029;-65
2022/11/06 10:56:11;;;;;;;5.90;2.55;;;;;;;14.05;65.99;100630.03;5032196;28;20065;-65
2022/11/06 10:58:37;;;;;;;4.28;1.65;;;;;;;14.35;66.01;100614.53;5033335;28;20037;-66
2022/11/06 11:01:04;;;;;;;6.70;2.47;;;;;;;14.28;66.19;100621.56;5031814;28;20107;-65
2022/11/06 11:03:34;;;;;;;8.35;2.22;;;;;;;14.25;65.68;100608.31;5033748;28;20080;-66
2022/11/06 11:06:00;;;;;;;6.15;1.88;;;;;;;14.20;66.40;100621.44;5033335;28;20033;-66
2022/11/06 11:08:33;;;;;;;5.38;1.55;;;;;;;14.01;66.79;100617.81;5033170;28;20038;-65
2022/11/06 11:11:02;;;;;;;3.03;1.40;;;;;;;14.33;65.92;100608.44;5032781;28;20025;-67
2022/11/06 11:13:28;;;;;;;5.18;1.60;;;;;;;14.27;66.25;100606.31;5033047;28;20090;-67
2022/11/06 11:15:54;;;;;;;9.63;2.42;;;;;;;14.67;64.39;100598.72;5031859;28;20033;-66
2022/11/06 11:18:33;;;;;;;5.65;1.50;;;;;;;14.83;64.39;100597.16;5033158;28;20080;-65
2022/11/06 11:21:10;;;;;;;4.53;2.03;;;;;;;14.74;64.23;100599.78;5032628;28;20470;-66
2022/11/06 11:23:36;;;;;;;5.30;1.85;;;;;;;14.64;64.25;100590.06;5032212;28;20046;-65
2022/11/06 11:26:32;;;;;;;6.55;2.28;;;;;;;14.54;64.98;100589.25;5032625;28;20353;-67
2022/11/06 11:29:01;;;;;;;7.22;2.35;;;;;;;14.32;64.79;100583.25;5023891;28;20049;-66
2022/11/06 11:31:34;;;;;;;4.90;1.92;;;;;;;14.31;64.95;100583.38;5031969;28;20037;-66
2022/11/06 11:34:02;;;;;;;7.45;2.25;;;;;;;14.38;64.63;100581.78;5032653;28;20033;-66
2022/11/06 11:36:51;;;;;;;6.35;1.88;;;;;;;14.29;65.02;100582.69;5032047;28;20076;-67
2022/11/06 11:39:19;;;;;;;5.72;2.05;;;;;;;14.33;64.78;100578.69;5032270;28;20178;-66
2022/11/06 11:41:45;;;;;;;5.25;1.80;;;;;;;14.48;64.34;100576.34;5032712;28;20121;-66
2022/11/06 11:44:10;;;;;;;7.30;2.30;;;;;;;14.65;63.68;100573.66;5032445;28;20100;-65
2022/11/06 11:46:46;;;;;;;7.05;1.85;;;;;;;14.52;63.69;100572.31;5032344;28;20083;-65
2022/11/06 11:49:33;;;;;;;4.47;1.95;;;;;;;14.17;65.56;100567.66;5031843;28;20041;-67